sensor_id;sensor_type;location;lat;lon;timestamp;P1;durP1;ratioP1;P2;durP2;ratioP2
66380;SDS011;53177;52.648;1.214;2023-08-30T00:01:29;7.75;;;3.60;;
66380;SDS011;53177;52.648;1.214;2023-08-30T00:03:55;8.15;;;3.42;;
66380;SDS011;53177;52.648;1.214;2023-08-30T00:06:20;9.80;;;4.03;;
66380;SDS011;53177;52.648;1.214;2023-08-30T00:08:46;8.00;;;3.90;;
66380;SDS011;53177;52.648;1.214;2023-08-30T00:11:11;9.03;;;3.57;;
66380;SDS011;53177;52.648;1.214;2023-08-30T00:13:36;9.27;;;3.53;;
66380;SDS011;53177;52.648;1.214;2023-08-30T00:16:02;7.13;;;3.27;;
66380;SDS011;53177;52.648;1.214;2023-08-30T00:18:27;8.70;;;3.70;;
66380;SDS011;53177;52.648;1.214;2023-08-30T00:20:53;9.50;;;3.60;;
66380;SDS011;53177;52.648;1.214;2023-08-30T00:23:18;7.53;;;3.30;;
66380;SDS011;53177;52.648;1.214;2023-08-30T00:25:44;7.50;;;3.10;;
66380;SDS011;53177;52.648;1.214;2023-08-30T00:28:09;6.88;;;3.08;;
66380;SDS011;53177;52.648;1.214;2023-08-30T00:30:34;8.63;;;3.73;;
66380;SDS011;53177;52.648;1.214;2023-08-30T00:33:00;7.53;;;3.37;;
66380;SDS011;53177;52.648;1.214;2023-08-30T00:35:25;7.47;;;3.43;;
66380;SDS011;53177;52.648;1.214;2023-08-30T00:37:51;7.70;;;3.35;;
66380;SDS011;53177;52.648;1.214;2023-08-30T00:40:16;9.07;;;3.88;;
66380;SDS011;53177;52.648;1.214;2023-08-30T00:42:41;7.73;;;3.53;;
66380;SDS011;53177;52.648;1.214;2023-08-30T00:45:07;7.80;;;3.40;;
66380;SDS011;53177;52.648;1.214;2023-08-30T00:47:33;8.85;;;3.70;;
66380;SDS011;53177;52.648;1.214;2023-08-30T00:49:59;9.07;;;4.32;;
66380;SDS011;53177;52.648;1.214;2023-08-30T00:52:25;7.80;;;3.72;;
66380;SDS011;53177;52.648;1.214;2023-08-30T00:54:51;7.30;;;3.87;;
66380;SDS011;53177;52.648;1.214;2023-08-30T00:57:16;8.80;;;4.38;;
66380;SDS011;53177;52.648;1.214;2023-08-30T00:59:42;9.07;;;4.27;;
66380;SDS011;53177;52.648;1.214;2023-08-30T01:02:07;8.60;;;4.27;;
66380;SDS011;53177;52.648;1.214;2023-08-30T01:04:34;9.90;;;4.50;;
66380;SDS011;53177;52.648;1.214;2023-08-30T01:06:59;8.83;;;4.23;;
66380;SDS011;53177;52.648;1.214;2023-08-30T01:09:25;10.07;;;4.47;;
66380;SDS011;53177;52.648;1.214;2023-08-30T01:12:10;9.70;;;4.80;;
66380;SDS011;53177;52.648;1.214;2023-08-30T01:15:06;10.77;;;4.47;;
66380;SDS011;53177;52.648;1.214;2023-08-30T01:17:35;9.85;;;4.20;;
66380;SDS011;53177;52.648;1.214;2023-08-30T01:20:06;10.10;;;4.80;;
66380;SDS011;53177;52.648;1.214;2023-08-30T01:22:55;11.10;;;4.32;;
66380;SDS011;53177;52.648;1.214;2023-08-30T01:28:04;11.57;;;4.78;;
66380;SDS011;53177;52.648;1.214;2023-08-30T01:30:34;12.75;;;5.00;;
66380;SDS011;53177;52.648;1.214;2023-08-30T01:33:03;10.37;;;4.13;;
66380;SDS011;53177;52.648;1.214;2023-08-30T01:35:30;9.77;;;3.70;;
66380;SDS011;53177;52.648;1.214;2023-08-30T01:38:01;9.00;;;3.58;;
66380;SDS011;53177;52.648;1.214;2023-08-30T01:40:28;11.50;;;3.55;;
66380;SDS011;53177;52.648;1.214;2023-08-30T01:42:56;11.30;;;3.30;;
66380;SDS011;53177;52.648;1.214;2023-08-30T01:45:23;11.53;;;3.73;;
66380;SDS011;53177;52.648;1.214;2023-08-30T01:47:49;9.20;;;3.65;;
66380;SDS011;53177;52.648;1.214;2023-08-30T01:50:17;8.63;;;3.38;;
66380;SDS011;53177;52.648;1.214;2023-08-30T01:52:44;10.55;;;3.40;;
66380;SDS011;53177;52.648;1.214;2023-08-30T01:55:11;11.38;;;3.55;;
66380;SDS011;53177;52.648;1.214;2023-08-30T01:57:39;10.17;;;3.33;;
66380;SDS011;53177;52.648;1.214;2023-08-30T02:00:04;8.40;;;2.83;;
66380;SDS011;53177;52.648;1.214;2023-08-30T02:02:30;9.38;;;3.30;;
66380;SDS011;53177;52.648;1.214;2023-08-30T02:04:56;14.88;;;3.60;;
66380;SDS011;53177;52.648;1.214;2023-08-30T02:07:28;9.60;;;2.87;;
66380;SDS011;53177;52.648;1.214;2023-08-30T02:10:09;9.05;;;3.28;;
66380;SDS011;53177;52.648;1.214;2023-08-30T02:12:39;8.98;;;3.10;;
66380;SDS011;53177;52.648;1.214;2023-08-30T02:15:10;12.13;;;3.20;;
66380;SDS011;53177;52.648;1.214;2023-08-30T02:17:37;11.30;;;2.90;;
66380;SDS011;53177;52.648;1.214;2023-08-30T02:20:04;11.93;;;3.17;;
66380;SDS011;53177;52.648;1.214;2023-08-30T02:22:31;11.27;;;3.05;;
66380;SDS011;53177;52.648;1.214;2023-08-30T02:24:56;8.70;;;3.10;;
66380;SDS011;53177;52.648;1.214;2023-08-30T02:27:22;9.10;;;3.20;;
66380;SDS011;53177;52.648;1.214;2023-08-30T02:29:48;7.60;;;3.10;;
66380;SDS011;53177;52.648;1.214;2023-08-30T02:32:13;7.37;;;2.63;;
66380;SDS011;53177;52.648;1.214;2023-08-30T02:34:40;11.52;;;2.70;;
66380;SDS011;53177;52.648;1.214;2023-08-30T02:37:05;9.53;;;2.90;;
66380;SDS011;53177;52.648;1.214;2023-08-30T02:39:30;7.90;;;3.13;;
66380;SDS011;53177;52.648;1.214;2023-08-30T02:41:56;8.20;;;2.77;;
66380;SDS011;53177;52.648;1.214;2023-08-30T02:44:21;9.87;;;3.40;;
66380;SDS011;53177;52.648;1.214;2023-08-30T02:46:46;9.70;;;3.03;;
66380;SDS011;53177;52.648;1.214;2023-08-30T02:49:12;7.67;;;2.90;;
66380;SDS011;53177;52.648;1.214;2023-08-30T02:51:37;12.15;;;3.53;;
66380;SDS011;53177;52.648;1.214;2023-08-30T02:54:03;10.60;;;2.80;;
66380;SDS011;53177;52.648;1.214;2023-08-30T02:56:28;8.97;;;2.90;;
66380;SDS011;53177;52.648;1.214;2023-08-30T02:58:53;6.87;;;2.60;;
66380;SDS011;53177;52.648;1.214;2023-08-30T03:01:19;9.23;;;2.40;;
66380;SDS011;53177;52.648;1.214;2023-08-30T03:03:47;9.20;;;2.88;;
66380;SDS011;53177;52.648;1.214;2023-08-30T03:06:12;8.65;;;2.90;;
66380;SDS011;53177;52.648;1.214;2023-08-30T03:08:39;9.20;;;2.60;;
66380;SDS011;53177;52.648;1.214;2023-08-30T03:11:11;6.70;;;2.28;;
66380;SDS011;53177;52.648;1.214;2023-08-30T03:13:38;9.05;;;2.58;;
66380;SDS011;53177;52.648;1.214;2023-08-30T03:16:10;8.80;;;2.70;;
66380;SDS011;53177;52.648;1.214;2023-08-30T03:18:37;9.18;;;2.63;;
66380;SDS011;53177;52.648;1.214;2023-08-30T03:21:02;9.00;;;2.60;;
66380;SDS011;53177;52.648;1.214;2023-08-30T03:23:28;8.20;;;2.47;;
66380;SDS011;53177;52.648;1.214;2023-08-30T03:25:55;8.38;;;2.60;;
66380;SDS011;53177;52.648;1.214;2023-08-30T03:28:21;7.85;;;2.55;;
66380;SDS011;53177;52.648;1.214;2023-08-30T03:30:47;8.47;;;2.73;;
66380;SDS011;53177;52.648;1.214;2023-08-30T03:33:12;7.53;;;2.60;;
66380;SDS011;53177;52.648;1.214;2023-08-30T03:35:38;8.27;;;2.60;;
66380;SDS011;53177;52.648;1.214;2023-08-30T03:38:04;7.40;;;2.70;;
66380;SDS011;53177;52.648;1.214;2023-08-30T03:40:29;8.93;;;2.60;;
66380;SDS011;53177;52.648;1.214;2023-08-30T03:42:55;8.98;;;2.40;;
66380;SDS011;53177;52.648;1.214;2023-08-30T03:45:20;8.37;;;2.60;;
66380;SDS011;53177;52.648;1.214;2023-08-30T03:47:46;7.83;;;2.40;;
66380;SDS011;53177;52.648;1.214;2023-08-30T03:50:11;10.73;;;2.70;;
66380;SDS011;53177;52.648;1.214;2023-08-30T03:52:37;8.17;;;2.57;;
66380;SDS011;53177;52.648;1.214;2023-08-30T03:55:02;10.23;;;2.72;;
66380;SDS011;53177;52.648;1.214;2023-08-30T03:57:28;8.87;;;3.40;;
66380;SDS011;53177;52.648;1.214;2023-08-30T03:59:53;7.65;;;2.53;;
66380;SDS011;53177;52.648;1.214;2023-08-30T04:02:19;10.43;;;3.17;;
66380;SDS011;53177;52.648;1.214;2023-08-30T04:04:46;9.77;;;2.70;;
66380;SDS011;53177;52.648;1.214;2023-08-30T04:07:12;8.48;;;2.60;;
66380;SDS011;53177;52.648;1.214;2023-08-30T04:09:38;8.47;;;2.67;;
66380;SDS011;53177;52.648;1.214;2023-08-30T04:12:03;8.00;;;3.03;;
66380;SDS011;53177;52.648;1.214;2023-08-30T04:14:30;10.38;;;2.83;;
66380;SDS011;53177;52.648;1.214;2023-08-30T04:16:55;10.70;;;2.93;;
66380;SDS011;53177;52.648;1.214;2023-08-30T04:19:20;11.20;;;2.90;;
66380;SDS011;53177;52.648;1.214;2023-08-30T04:21:46;8.73;;;2.87;;
66380;SDS011;53177;52.648;1.214;2023-08-30T04:24:11;9.88;;;2.95;;
66380;SDS011;53177;52.648;1.214;2023-08-30T04:26:37;11.53;;;3.00;;
66380;SDS011;53177;52.648;1.214;2023-08-30T04:29:02;11.17;;;3.10;;
66380;SDS011;53177;52.648;1.214;2023-08-30T04:31:28;10.27;;;3.13;;
66380;SDS011;53177;52.648;1.214;2023-08-30T04:33:54;11.27;;;2.70;;
66380;SDS011;53177;52.648;1.214;2023-08-30T04:36:20;8.52;;;2.67;;
66380;SDS011;53177;52.648;1.214;2023-08-30T04:38:46;11.23;;;2.95;;
66380;SDS011;53177;52.648;1.214;2023-08-30T04:41:13;9.10;;;2.50;;
66380;SDS011;53177;52.648;1.214;2023-08-30T04:43:41;10.40;;;3.03;;
66380;SDS011;53177;52.648;1.214;2023-08-30T04:46:13;10.60;;;3.15;;
66380;SDS011;53177;52.648;1.214;2023-08-30T04:48:45;9.50;;;2.85;;
66380;SDS011;53177;52.648;1.214;2023-08-30T04:51:14;10.33;;;2.77;;
66380;SDS011;53177;52.648;1.214;2023-08-30T04:53:41;8.48;;;2.72;;
66380;SDS011;53177;52.648;1.214;2023-08-30T04:56:12;9.77;;;3.08;;
66380;SDS011;53177;52.648;1.214;2023-08-30T04:58:43;13.02;;;3.40;;
66380;SDS011;53177;52.648;1.214;2023-08-30T05:01:11;12.13;;;3.45;;
66380;SDS011;53177;52.648;1.214;2023-08-30T05:03:41;12.00;;;2.90;;
66380;SDS011;53177;52.648;1.214;2023-08-30T05:06:07;8.75;;;2.80;;
66380;SDS011;53177;52.648;1.214;2023-08-30T05:08:32;11.52;;;2.97;;
66380;SDS011;53177;52.648;1.214;2023-08-30T05:10:58;14.90;;;3.30;;
66380;SDS011;53177;52.648;1.214;2023-08-30T05:13:23;12.50;;;3.10;;
66380;SDS011;53177;52.648;1.214;2023-08-30T05:15:49;8.07;;;3.10;;
66380;SDS011;53177;52.648;1.214;2023-08-30T05:18:14;10.98;;;2.97;;
66380;SDS011;53177;52.648;1.214;2023-08-30T05:20:40;8.70;;;2.90;;
66380;SDS011;53177;52.648;1.214;2023-08-30T05:23:06;10.80;;;3.30;;
66380;SDS011;53177;52.648;1.214;2023-08-30T05:25:31;9.37;;;2.73;;
66380;SDS011;53177;52.648;1.214;2023-08-30T05:27:57;11.40;;;3.28;;
66380;SDS011;53177;52.648;1.214;2023-08-30T05:30:23;10.52;;;2.95;;
66380;SDS011;53177;52.648;1.214;2023-08-30T05:32:49;12.80;;;2.70;;
66380;SDS011;53177;52.648;1.214;2023-08-30T05:35:16;10.27;;;3.05;;
66380;SDS011;53177;52.648;1.214;2023-08-30T05:37:46;13.95;;;3.30;;
66380;SDS011;53177;52.648;1.214;2023-08-30T05:40:13;11.43;;;3.27;;
66380;SDS011;53177;52.648;1.214;2023-08-30T05:42:42;11.13;;;3.10;;
66380;SDS011;53177;52.648;1.214;2023-08-30T05:45:13;10.93;;;3.03;;
66380;SDS011;53177;52.648;1.214;2023-08-30T05:47:43;12.20;;;3.40;;
66380;SDS011;53177;52.648;1.214;2023-08-30T05:50:08;7.83;;;2.90;;
66380;SDS011;53177;52.648;1.214;2023-08-30T05:52:34;9.70;;;3.90;;
66380;SDS011;53177;52.648;1.214;2023-08-30T05:54:59;14.30;;;3.40;;
66380;SDS011;53177;52.648;1.214;2023-08-30T05:57:25;12.85;;;3.22;;
66380;SDS011;53177;52.648;1.214;2023-08-30T05:59:51;11.53;;;3.50;;
66380;SDS011;53177;52.648;1.214;2023-08-30T06:02:17;12.75;;;3.28;;
66380;SDS011;53177;52.648;1.214;2023-08-30T06:04:42;10.38;;;3.22;;
66380;SDS011;53177;52.648;1.214;2023-08-30T06:07:07;11.77;;;3.23;;
66380;SDS011;53177;52.648;1.214;2023-08-30T06:09:33;12.10;;;4.17;;
66380;SDS011;53177;52.648;1.214;2023-08-30T06:11:59;15.60;;;3.90;;
66380;SDS011;53177;52.648;1.214;2023-08-30T06:14:24;10.10;;;3.88;;
66380;SDS011;53177;52.648;1.214;2023-08-30T06:16:50;9.50;;;3.50;;
66380;SDS011;53177;52.648;1.214;2023-08-30T06:19:15;13.00;;;3.47;;
66380;SDS011;53177;52.648;1.214;2023-08-30T06:21:40;14.95;;;3.65;;
66380;SDS011;53177;52.648;1.214;2023-08-30T06:24:06;12.20;;;3.50;;
66380;SDS011;53177;52.648;1.214;2023-08-30T06:26:32;15.40;;;4.30;;
66380;SDS011;53177;52.648;1.214;2023-08-30T06:28:57;11.35;;;3.67;;
66380;SDS011;53177;52.648;1.214;2023-08-30T06:31:23;12.63;;;3.90;;
66380;SDS011;53177;52.648;1.214;2023-08-30T06:33:48;11.83;;;3.23;;
66380;SDS011;53177;52.648;1.214;2023-08-30T06:36:15;12.40;;;3.58;;
66380;SDS011;53177;52.648;1.214;2023-08-30T06:38:42;11.90;;;3.78;;
66380;SDS011;53177;52.648;1.214;2023-08-30T06:41:08;11.03;;;3.57;;
66380;SDS011;53177;52.648;1.214;2023-08-30T06:43:33;13.00;;;3.65;;
66380;SDS011;53177;52.648;1.214;2023-08-30T06:45:58;11.83;;;4.20;;
66380;SDS011;53177;52.648;1.214;2023-08-30T06:48:24;13.73;;;4.03;;
66380;SDS011;53177;52.648;1.214;2023-08-30T06:50:50;12.63;;;4.57;;
66380;SDS011;53177;52.648;1.214;2023-08-30T06:53:15;13.15;;;4.07;;
66380;SDS011;53177;52.648;1.214;2023-08-30T06:55:40;13.67;;;4.57;;
66380;SDS011;53177;52.648;1.214;2023-08-30T06:58:06;13.47;;;3.83;;
66380;SDS011;53177;52.648;1.214;2023-08-30T07:00:31;14.23;;;4.83;;
66380;SDS011;53177;52.648;1.214;2023-08-30T07:02:56;12.83;;;4.00;;
66380;SDS011;53177;52.648;1.214;2023-08-30T07:05:22;14.00;;;4.30;;
66380;SDS011;53177;52.648;1.214;2023-08-30T07:07:48;11.57;;;4.00;;
66380;SDS011;53177;52.648;1.214;2023-08-30T07:10:13;12.87;;;3.93;;
66380;SDS011;53177;52.648;1.214;2023-08-30T07:12:38;16.37;;;4.00;;
66380;SDS011;53177;52.648;1.214;2023-08-30T07:15:04;12.47;;;4.20;;
66380;SDS011;53177;52.648;1.214;2023-08-30T07:17:30;11.27;;;3.80;;
66380;SDS011;53177;52.648;1.214;2023-08-30T07:19:55;12.93;;;3.80;;
66380;SDS011;53177;52.648;1.214;2023-08-30T07:22:21;13.53;;;4.50;;
66380;SDS011;53177;52.648;1.214;2023-08-30T07:24:46;12.70;;;3.90;;
66380;SDS011;53177;52.648;1.214;2023-08-30T07:27:12;9.07;;;3.70;;
66380;SDS011;53177;52.648;1.214;2023-08-30T07:29:38;13.73;;;4.07;;
66380;SDS011;53177;52.648;1.214;2023-08-30T07:32:05;13.13;;;4.30;;
66380;SDS011;53177;52.648;1.214;2023-08-30T07:34:31;11.98;;;4.22;;
66380;SDS011;53177;52.648;1.214;2023-08-30T07:36:57;14.97;;;4.47;;
66380;SDS011;53177;52.648;1.214;2023-08-30T07:39:22;15.47;;;4.10;;
66380;SDS011;53177;52.648;1.214;2023-08-30T07:41:47;11.90;;;4.30;;
66380;SDS011;53177;52.648;1.214;2023-08-30T07:44:13;11.05;;;4.05;;
66380;SDS011;53177;52.648;1.214;2023-08-30T07:46:38;13.93;;;4.07;;
66380;SDS011;53177;52.648;1.214;2023-08-30T07:49:04;10.17;;;3.97;;
66380;SDS011;53177;52.648;1.214;2023-08-30T07:51:29;11.53;;;4.07;;
66380;SDS011;53177;52.648;1.214;2023-08-30T07:53:54;12.23;;;3.87;;
66380;SDS011;53177;52.648;1.214;2023-08-30T07:56:20;11.67;;;3.90;;
66380;SDS011;53177;52.648;1.214;2023-08-30T07:58:45;11.05;;;3.72;;
66380;SDS011;53177;52.648;1.214;2023-08-30T08:01:10;8.90;;;3.60;;
66380;SDS011;53177;52.648;1.214;2023-08-30T08:03:36;12.50;;;4.20;;
66380;SDS011;53177;52.648;1.214;2023-08-30T08:06:01;11.43;;;3.90;;
66380;SDS011;53177;52.648;1.214;2023-08-30T08:08:27;12.77;;;4.03;;
66380;SDS011;53177;52.648;1.214;2023-08-30T08:10:52;14.90;;;3.70;;
66380;SDS011;53177;52.648;1.214;2023-08-30T08:13:17;10.98;;;4.10;;
66380;SDS011;53177;52.648;1.214;2023-08-30T08:15:43;10.10;;;3.90;;
66380;SDS011;53177;52.648;1.214;2023-08-30T08:18:09;12.17;;;3.83;;
66380;SDS011;53177;52.648;1.214;2023-08-30T08:20:34;10.20;;;3.50;;
66380;SDS011;53177;52.648;1.214;2023-08-30T08:23:02;10.43;;;3.57;;
66380;SDS011;53177;52.648;1.214;2023-08-30T08:25:28;9.65;;;3.50;;
66380;SDS011;53177;52.648;1.214;2023-08-30T08:27:58;9.95;;;3.78;;
66380;SDS011;53177;52.648;1.214;2023-08-30T08:30:24;10.48;;;3.70;;
66380;SDS011;53177;52.648;1.214;2023-08-30T08:32:51;8.35;;;3.60;;
66380;SDS011;53177;52.648;1.214;2023-08-30T08:35:18;11.23;;;3.10;;
66380;SDS011;53177;52.648;1.214;2023-08-30T08:37:44;10.45;;;3.40;;
66380;SDS011;53177;52.648;1.214;2023-08-30T08:40:11;6.97;;;3.08;;
66380;SDS011;53177;52.648;1.214;2023-08-30T08:42:38;9.10;;;2.90;;
66380;SDS011;53177;52.648;1.214;2023-08-30T08:45:05;10.27;;;3.00;;
66380;SDS011;53177;52.648;1.214;2023-08-30T08:47:32;10.60;;;2.83;;
66380;SDS011;53177;52.648;1.214;2023-08-30T08:49:57;9.40;;;2.35;;
66380;SDS011;53177;52.648;1.214;2023-08-30T08:52:23;11.10;;;2.57;;
66380;SDS011;53177;52.648;1.214;2023-08-30T08:54:49;9.18;;;2.55;;
66380;SDS011;53177;52.648;1.214;2023-08-30T08:57:16;7.75;;;2.30;;
66380;SDS011;53177;52.648;1.214;2023-08-30T08:59:42;8.73;;;2.30;;
66380;SDS011;53177;52.648;1.214;2023-08-30T09:02:08;8.57;;;2.30;;
66380;SDS011;53177;52.648;1.214;2023-08-30T09:04:38;11.45;;;2.22;;
66380;SDS011;53177;52.648;1.214;2023-08-30T09:07:04;4.97;;;1.60;;
66380;SDS011;53177;52.648;1.214;2023-08-30T09:09:29;8.80;;;1.90;;
66380;SDS011;53177;52.648;1.214;2023-08-30T09:11:55;7.65;;;1.70;;
66380;SDS011;53177;52.648;1.214;2023-08-30T09:14:21;9.00;;;1.77;;
66380;SDS011;53177;52.648;1.214;2023-08-30T09:17:04;7.40;;;1.47;;
66380;SDS011;53177;52.648;1.214;2023-08-30T09:19:31;6.95;;;1.70;;
66380;SDS011;53177;52.648;1.214;2023-08-30T09:21:57;7.30;;;1.60;;
66380;SDS011;53177;52.648;1.214;2023-08-30T09:24:23;7.78;;;1.30;;
66380;SDS011;53177;52.648;1.214;2023-08-30T09:26:50;6.20;;;1.60;;
66380;SDS011;53177;52.648;1.214;2023-08-30T09:29:17;6.10;;;1.40;;
66380;SDS011;53177;52.648;1.214;2023-08-30T09:31:44;4.90;;;1.23;;
66380;SDS011;53177;52.648;1.214;2023-08-30T09:34:09;7.10;;;1.40;;
66380;SDS011;53177;52.648;1.214;2023-08-30T09:36:39;6.65;;;1.60;;
66380;SDS011;53177;52.648;1.214;2023-08-30T09:39:07;6.28;;;1.83;;
66380;SDS011;53177;52.648;1.214;2023-08-30T09:41:37;7.68;;;1.40;;
66380;SDS011;53177;52.648;1.214;2023-08-30T09:44:06;7.07;;;1.50;;
66380;SDS011;53177;52.648;1.214;2023-08-30T09:46:45;4.97;;;1.35;;
66380;SDS011;53177;52.648;1.214;2023-08-30T09:49:23;5.50;;;1.13;;
66380;SDS011;53177;52.648;1.214;2023-08-30T09:51:50;7.00;;;1.60;;
66380;SDS011;53177;52.648;1.214;2023-08-30T09:54:18;4.85;;;1.27;;
66380;SDS011;53177;52.648;1.214;2023-08-30T09:56:45;5.05;;;1.35;;
66380;SDS011;53177;52.648;1.214;2023-08-30T09:59:11;4.60;;;1.13;;
66380;SDS011;53177;52.648;1.214;2023-08-30T10:01:39;4.30;;;1.15;;
66380;SDS011;53177;52.648;1.214;2023-08-30T10:04:06;4.93;;;1.25;;
66380;SDS011;53177;52.648;1.214;2023-08-30T10:06:33;4.75;;;1.20;;
66380;SDS011;53177;52.648;1.214;2023-08-30T10:09:00;5.97;;;1.20;;
66380;SDS011;53177;52.648;1.214;2023-08-30T10:11:28;3.75;;;1.10;;
66380;SDS011;53177;52.648;1.214;2023-08-30T10:13:54;6.72;;;1.30;;
66380;SDS011;53177;52.648;1.214;2023-08-30T10:16:22;5.43;;;1.02;;
66380;SDS011;53177;52.648;1.214;2023-08-30T10:18:52;6.63;;;1.13;;
66380;SDS011;53177;52.648;1.214;2023-08-30T10:21:23;5.63;;;1.10;;
66380;SDS011;53177;52.648;1.214;2023-08-30T10:23:50;4.13;;;1.10;;
66380;SDS011;53177;52.648;1.214;2023-08-30T10:26:20;9.07;;;1.33;;
66380;SDS011;53177;52.648;1.214;2023-08-30T10:28:49;6.28;;;1.30;;
66380;SDS011;53177;52.648;1.214;2023-08-30T10:31:17;4.68;;;1.17;;
66380;SDS011;53177;52.648;1.214;2023-08-30T10:33:55;3.73;;;1.00;;
66380;SDS011;53177;52.648;1.214;2023-08-30T10:36:24;6.78;;;1.73;;
66380;SDS011;53177;52.648;1.214;2023-08-30T10:38:51;4.27;;;1.10;;
66380;SDS011;53177;52.648;1.214;2023-08-30T10:41:21;5.15;;;1.00;;
66380;SDS011;53177;52.648;1.214;2023-08-30T10:43:49;5.70;;;1.10;;
66380;SDS011;53177;52.648;1.214;2023-08-30T10:46:17;6.28;;;1.20;;
66380;SDS011;53177;52.648;1.214;2023-08-30T10:48:54;4.53;;;1.25;;
66380;SDS011;53177;52.648;1.214;2023-08-30T10:51:34;4.20;;;1.10;;
66380;SDS011;53177;52.648;1.214;2023-08-30T10:54:09;5.03;;;0.90;;
66380;SDS011;53177;52.648;1.214;2023-08-30T10:56:45;4.78;;;0.90;;
66380;SDS011;53177;52.648;1.214;2023-08-30T10:59:18;5.72;;;1.00;;
66380;SDS011;53177;52.648;1.214;2023-08-30T11:01:47;5.35;;;1.27;;
66380;SDS011;53177;52.648;1.214;2023-08-30T11:04:14;5.03;;;1.20;;
66380;SDS011;53177;52.648;1.214;2023-08-30T11:06:44;4.60;;;0.80;;
66380;SDS011;53177;52.648;1.214;2023-08-30T11:09:15;8.93;;;1.20;;
66380;SDS011;53177;52.648;1.214;2023-08-30T11:11:45;4.88;;;1.10;;
66380;SDS011;53177;52.648;1.214;2023-08-30T11:14:12;4.50;;;1.17;;
66380;SDS011;53177;52.648;1.214;2023-08-30T11:16:38;5.73;;;1.20;;
66380;SDS011;53177;52.648;1.214;2023-08-30T11:19:05;6.15;;;1.25;;
66380;SDS011;53177;52.648;1.214;2023-08-30T11:21:33;7.97;;;1.17;;
66380;SDS011;53177;52.648;1.214;2023-08-30T11:24:01;5.25;;;1.48;;
66380;SDS011;53177;52.648;1.214;2023-08-30T11:26:28;8.17;;;1.50;;
66380;SDS011;53177;52.648;1.214;2023-08-30T11:28:54;6.90;;;1.42;;
66380;SDS011;53177;52.648;1.214;2023-08-30T11:31:20;7.03;;;1.20;;
66380;SDS011;53177;52.648;1.214;2023-08-30T11:33:50;4.70;;;1.20;;
66380;SDS011;53177;52.648;1.214;2023-08-30T11:36:18;6.68;;;1.77;;
66380;SDS011;53177;52.648;1.214;2023-08-30T11:38:45;6.13;;;1.75;;
66380;SDS011;53177;52.648;1.214;2023-08-30T11:41:11;7.53;;;1.50;;
66380;SDS011;53177;52.648;1.214;2023-08-30T11:43:37;5.35;;;1.20;;
66380;SDS011;53177;52.648;1.214;2023-08-30T11:46:03;6.82;;;1.48;;
66380;SDS011;53177;52.648;1.214;2023-08-30T11:48:29;4.82;;;1.10;;
66380;SDS011;53177;52.648;1.214;2023-08-30T11:51:00;5.43;;;1.17;;
66380;SDS011;53177;52.648;1.214;2023-08-30T11:53:27;4.15;;;0.95;;
66380;SDS011;53177;52.648;1.214;2023-08-30T11:55:55;6.18;;;0.90;;
66380;SDS011;53177;52.648;1.214;2023-08-30T11:58:21;5.18;;;1.00;;
66380;SDS011;53177;52.648;1.214;2023-08-30T12:00:52;4.30;;;0.90;;
66380;SDS011;53177;52.648;1.214;2023-08-30T12:03:25;4.93;;;1.00;;
66380;SDS011;53177;52.648;1.214;2023-08-30T12:05:55;5.93;;;0.90;;
66380;SDS011;53177;52.648;1.214;2023-08-30T12:08:29;3.92;;;0.90;;
66380;SDS011;53177;52.648;1.214;2023-08-30T12:11:01;6.03;;;0.80;;
66380;SDS011;53177;52.648;1.214;2023-08-30T12:13:29;4.43;;;0.87;;
66380;SDS011;53177;52.648;1.214;2023-08-30T12:15:56;3.63;;;0.80;;
66380;SDS011;53177;52.648;1.214;2023-08-30T12:18:26;4.25;;;0.90;;
66380;SDS011;53177;52.648;1.214;2023-08-30T12:20:54;4.80;;;1.05;;
66380;SDS011;53177;52.648;1.214;2023-08-30T12:23:31;4.37;;;0.80;;
66380;SDS011;53177;52.648;1.214;2023-08-30T12:28:27;3.80;;;1.00;;
66380;SDS011;53177;52.648;1.214;2023-08-30T12:30:53;5.50;;;1.20;;
66380;SDS011;53177;52.648;1.214;2023-08-30T12:33:19;6.20;;;1.10;;
66380;SDS011;53177;52.648;1.214;2023-08-30T12:35:45;4.43;;;0.97;;
66380;SDS011;53177;52.648;1.214;2023-08-30T12:38:11;6.13;;;0.93;;
66380;SDS011;53177;52.648;1.214;2023-08-30T12:40:45;4.97;;;1.00;;
66380;SDS011;53177;52.648;1.214;2023-08-30T12:43:12;5.55;;;1.08;;
66380;SDS011;53177;52.648;1.214;2023-08-30T12:45:41;3.90;;;0.90;;
66380;SDS011;53177;52.648;1.214;2023-08-30T12:48:08;3.58;;;1.00;;
66380;SDS011;53177;52.648;1.214;2023-08-30T12:50:35;3.63;;;1.00;;
66380;SDS011;53177;52.648;1.214;2023-08-30T12:53:01;5.33;;;1.00;;
66380;SDS011;53177;52.648;1.214;2023-08-30T12:55:30;5.50;;;1.25;;
66380;SDS011;53177;52.648;1.214;2023-08-30T12:57:55;4.28;;;1.00;;
66380;SDS011;53177;52.648;1.214;2023-08-30T13:00:21;4.23;;;1.23;;
66380;SDS011;53177;52.648;1.214;2023-08-30T13:02:47;7.50;;;1.30;;
66380;SDS011;53177;52.648;1.214;2023-08-30T13:05:12;4.80;;;1.30;;
66380;SDS011;53177;52.648;1.214;2023-08-30T13:07:38;3.80;;;1.03;;
66380;SDS011;53177;52.648;1.214;2023-08-30T13:10:05;5.03;;;1.10;;
66380;SDS011;53177;52.648;1.214;2023-08-30T13:12:31;5.22;;;1.17;;
66380;SDS011;53177;52.648;1.214;2023-08-30T13:14:57;4.40;;;1.10;;
66380;SDS011;53177;52.648;1.214;2023-08-30T13:17:22;4.40;;;1.00;;
66380;SDS011;53177;52.648;1.214;2023-08-30T13:19:48;3.93;;;1.00;;
66380;SDS011;53177;52.648;1.214;2023-08-30T13:22:14;3.42;;;1.20;;
66380;SDS011;53177;52.648;1.214;2023-08-30T13:24:39;5.30;;;1.20;;
66380;SDS011;53177;52.648;1.214;2023-08-30T13:27:05;4.10;;;1.00;;
66380;SDS011;53177;52.648;1.214;2023-08-30T13:29:31;4.27;;;0.90;;
66380;SDS011;53177;52.648;1.214;2023-08-30T13:31:56;5.57;;;1.10;;
66380;SDS011;53177;52.648;1.214;2023-08-30T13:34:21;3.53;;;1.00;;
66380;SDS011;53177;52.648;1.214;2023-08-30T13:36:47;4.37;;;1.10;;
66380;SDS011;53177;52.648;1.214;2023-08-30T13:39:12;3.47;;;1.10;;
66380;SDS011;53177;52.648;1.214;2023-08-30T13:41:38;5.93;;;1.20;;
66380;SDS011;53177;52.648;1.214;2023-08-30T13:44:03;4.13;;;1.00;;
66380;SDS011;53177;52.648;1.214;2023-08-30T13:46:29;4.10;;;1.00;;
66380;SDS011;53177;52.648;1.214;2023-08-30T13:48:55;4.13;;;0.80;;
66380;SDS011;53177;52.648;1.214;2023-08-30T13:51:24;4.60;;;0.90;;
66380;SDS011;53177;52.648;1.214;2023-08-30T13:53:51;3.22;;;0.90;;
66380;SDS011;53177;52.648;1.214;2023-08-30T13:56:17;4.22;;;0.90;;
66380;SDS011;53177;52.648;1.214;2023-08-30T13:58:43;3.60;;;0.85;;
66380;SDS011;53177;52.648;1.214;2023-08-30T14:01:10;4.70;;;1.00;;
66380;SDS011;53177;52.648;1.214;2023-08-30T14:03:35;3.47;;;1.00;;
66380;SDS011;53177;52.648;1.214;2023-08-30T14:06:00;4.43;;;1.00;;
66380;SDS011;53177;52.648;1.214;2023-08-30T14:08:26;3.70;;;1.00;;
66380;SDS011;53177;52.648;1.214;2023-08-30T14:10:51;5.47;;;1.23;;
66380;SDS011;53177;52.648;1.214;2023-08-30T14:13:16;3.67;;;0.90;;
66380;SDS011;53177;52.648;1.214;2023-08-30T14:15:42;4.37;;;1.10;;
66380;SDS011;53177;52.648;1.214;2023-08-30T14:18:07;4.83;;;1.70;;
66380;SDS011;53177;52.648;1.214;2023-08-30T14:20:33;5.40;;;1.47;;
66380;SDS011;53177;52.648;1.214;2023-08-30T14:22:58;6.73;;;1.90;;
66380;SDS011;53177;52.648;1.214;2023-08-30T14:25:24;6.97;;;2.00;;
66380;SDS011;53177;52.648;1.214;2023-08-30T14:27:49;9.30;;;2.60;;
66380;SDS011;53177;52.648;1.214;2023-08-30T14:30:14;10.10;;;2.80;;
66380;SDS011;53177;52.648;1.214;2023-08-30T14:32:40;6.13;;;1.80;;
66380;SDS011;53177;52.648;1.214;2023-08-30T14:35:06;4.50;;;1.40;;
66380;SDS011;53177;52.648;1.214;2023-08-30T14:37:32;3.30;;;1.00;;
66380;SDS011;53177;52.648;1.214;2023-08-30T14:39:59;4.70;;;1.40;;
66380;SDS011;53177;52.648;1.214;2023-08-30T14:42:25;4.23;;;1.20;;
66380;SDS011;53177;52.648;1.214;2023-08-30T14:44:51;3.15;;;0.95;;
66380;SDS011;53177;52.648;1.214;2023-08-30T14:47:17;3.30;;;1.00;;